sensor_id;sensor_type;location;lat;lon;timestamp;P1;durP1;ratioP1;P2;durP2;ratioP2
16133;SDS011;8172;45.018;5.972;2022-08-19T00:01:25;1.00;;;1.00;;
16133;SDS011;8172;45.018;5.972;2022-08-19T00:06:35;1.30;;;1.00;;
16133;SDS011;8172;45.018;5.972;2022-08-19T00:11:44;1.10;;;1.00;;
16133;SDS011;8172;45.018;5.972;2022-08-19T00:16:52;1.20;;;1.00;;
16133;SDS011;8172;45.018;5.972;2022-08-19T00:22:00;1.63;;;1.10;;
16133;SDS011;8172;45.018;5.972;2022-08-19T00:27:07;1.43;;;1.10;;
16133;SDS011;8172;45.018;5.972;2022-08-19T00:32:16;2.10;;;1.07;;
16133;SDS011;8172;45.018;5.972;2022-08-19T00:37:23;1.70;;;1.10;;
16133;SDS011;8172;45.018;5.972;2022-08-19T00:42:31;14.70;;;1.53;;
16133;SDS011;8172;45.018;5.972;2022-08-19T00:47:39;2.23;;;1.40;;
16133;SDS011;8172;45.018;5.972;2022-08-19T00:52:47;1.80;;;1.47;;
16133;SDS011;8172;45.018;5.972;2022-08-19T00:57:58;2.53;;;1.47;;
16133;SDS011;8172;45.018;5.972;2022-08-19T01:03:07;1.50;;;1.40;;
16133;SDS011;8172;45.018;5.972;2022-08-19T01:08:17;3.10;;;1.70;;
16133;SDS011;8172;45.018;5.972;2022-08-19T01:13:27;1.50;;;1.40;;
16133;SDS011;8172;45.018;5.972;2022-08-19T01:18:38;1.40;;;1.30;;
16133;SDS011;8172;45.018;5.972;2022-08-19T01:23:46;11.90;;;1.60;;
16133;SDS011;8172;45.018;5.972;2022-08-19T01:28:55;1.40;;;1.17;;
16133;SDS011;8172;45.018;5.972;2022-08-19T01:34:05;19.23;;;1.77;;
16133;SDS011;8172;45.018;5.972;2022-08-19T01:39:15;1.20;;;1.10;;
16133;SDS011;8172;45.018;5.972;2022-08-19T01:44:24;1.23;;;1.13;;
16133;SDS011;8172;45.018;5.972;2022-08-19T01:49:31;48.37;;;3.30;;
16133;SDS011;8172;45.018;5.972;2022-08-19T01:54:38;29.47;;;2.53;;
16133;SDS011;8172;45.018;5.972;2022-08-19T01:59:45;1.00;;;1.00;;
16133;SDS011;8172;45.018;5.972;2022-08-19T02:04:53;1.37;;;1.27;;
16133;SDS011;8172;45.018;5.972;2022-08-19T02:10:03;1.60;;;1.47;;
16133;SDS011;8172;45.018;5.972;2022-08-19T02:15:11;1.13;;;0.90;;
16133;SDS011;8172;45.018;5.972;2022-08-19T02:20:18;1.20;;;1.10;;
16133;SDS011;8172;45.018;5.972;2022-08-19T02:25:25;0.87;;;0.87;;
16133;SDS011;8172;45.018;5.972;2022-08-19T02:30:33;17.13;;;1.80;;
16133;SDS011;8172;45.018;5.972;2022-08-19T02:35:41;9.10;;;1.20;;
16133;SDS011;8172;45.018;5.972;2022-08-19T02:40:51;7.53;;;1.00;;
16133;SDS011;8172;45.018;5.972;2022-08-19T02:46:00;40.70;;;2.03;;
16133;SDS011;8172;45.018;5.972;2022-08-19T02:51:08;2.63;;;0.77;;
16133;SDS011;8172;45.018;5.972;2022-08-19T02:56:22;1.07;;;0.90;;
16133;SDS011;8172;45.018;5.972;2022-08-19T03:01:59;0.90;;;0.90;;
16133;SDS011;8172;45.018;5.972;2022-08-19T03:07:06;1.33;;;1.00;;
16133;SDS011;8172;45.018;5.972;2022-08-19T03:12:14;1.63;;;1.00;;
16133;SDS011;8172;45.018;5.972;2022-08-19T03:17:21;0.87;;;0.87;;
16133;SDS011;8172;45.018;5.972;2022-08-19T03:22:28;3.27;;;1.10;;
16133;SDS011;8172;45.018;5.972;2022-08-19T03:27:35;1.00;;;0.90;;
16133;SDS011;8172;45.018;5.972;2022-08-19T03:32:42;4.67;;;1.43;;
16133;SDS011;8172;45.018;5.972;2022-08-19T03:37:49;10.07;;;1.07;;
16133;SDS011;8172;45.018;5.972;2022-08-19T03:42:58;10.60;;;1.30;;
16133;SDS011;8172;45.018;5.972;2022-08-19T03:48:06;2.40;;;1.20;;
16133;SDS011;8172;45.018;5.972;2022-08-19T03:53:13;1.20;;;1.10;;
16133;SDS011;8172;45.018;5.972;2022-08-19T03:58:21;1.80;;;1.13;;
16133;SDS011;8172;45.018;5.972;2022-08-19T04:03:28;1.47;;;1.27;;
16133;SDS011;8172;45.018;5.972;2022-08-19T04:08:35;3.37;;;1.30;;
16133;SDS011;8172;45.018;5.972;2022-08-19T04:13:42;1.40;;;1.10;;
16133;SDS011;8172;45.018;5.972;2022-08-19T04:18:50;0.80;;;0.80;;
16133;SDS011;8172;45.018;5.972;2022-08-19T04:23:57;1.20;;;1.00;;
16133;SDS011;8172;45.018;5.972;2022-08-19T04:29:05;1.20;;;1.00;;
16133;SDS011;8172;45.018;5.972;2022-08-19T04:34:18;1.00;;;0.90;;
16133;SDS011;8172;45.018;5.972;2022-08-19T04:39:29;16.23;;;1.37;;
16133;SDS011;8172;45.018;5.972;2022-08-19T04:44:38;1.00;;;0.90;;
16133;SDS011;8172;45.018;5.972;2022-08-19T04:49:48;44.00;;;2.70;;
16133;SDS011;8172;45.018;5.972;2022-08-19T04:54:55;33.43;;;2.03;;
16133;SDS011;8172;45.018;5.972;2022-08-19T05:00:02;35.30;;;2.17;;
16133;SDS011;8172;45.018;5.972;2022-08-19T05:05:09;14.23;;;1.37;;
16133;SDS011;8172;45.018;5.972;2022-08-19T05:10:17;1.00;;;0.90;;
16133;SDS011;8172;45.018;5.972;2022-08-19T05:15:25;1.03;;;0.93;;
16133;SDS011;8172;45.018;5.972;2022-08-19T05:20:32;2.47;;;1.00;;
16133;SDS011;8172;45.018;5.972;2022-08-19T05:25:41;0.90;;;0.90;;
16133;SDS011;8172;45.018;5.972;2022-08-19T05:30:49;0.83;;;0.80;;
16133;SDS011;8172;45.018;5.972;2022-08-19T05:35:56;22.20;;;1.77;;
16133;SDS011;8172;45.018;5.972;2022-08-19T05:41:06;11.07;;;1.37;;
16133;SDS011;8172;45.018;5.972;2022-08-19T05:51:25;13.30;;;1.20;;
16133;SDS011;8172;45.018;5.972;2022-08-19T05:56:34;14.83;;;1.50;;
16133;SDS011;8172;45.018;5.972;2022-08-19T06:01:44;27.23;;;1.90;;
16133;SDS011;8172;45.018;5.972;2022-08-19T06:06:54;0.87;;;0.70;;
16133;SDS011;8172;45.018;5.972;2022-08-19T06:12:02;4.23;;;1.20;;
16133;SDS011;8172;45.018;5.972;2022-08-19T06:17:10;40.13;;;2.60;;
16133;SDS011;8172;45.018;5.972;2022-08-19T06:22:18;4.60;;;1.00;;
16133;SDS011;8172;45.018;5.972;2022-08-19T06:27:25;54.73;;;3.00;;
16133;SDS011;8172;45.018;5.972;2022-08-19T06:32:32;2.30;;;0.93;;
16133;SDS011;8172;45.018;5.972;2022-08-19T06:37:40;11.40;;;1.50;;
16133;SDS011;8172;45.018;5.972;2022-08-19T06:42:48;0.90;;;0.80;;
16133;SDS011;8172;45.018;5.972;2022-08-19T06:47:57;1.10;;;1.00;;
16133;SDS011;8172;45.018;5.972;2022-08-19T06:53:05;59.57;;;3.17;;
16133;SDS011;8172;45.018;5.972;2022-08-19T06:58:12;0.90;;;0.80;;
16133;SDS011;8172;45.018;5.972;2022-08-19T07:03:19;61.87;;;3.37;;
16133;SDS011;8172;45.018;5.972;2022-08-19T07:08:27;0.87;;;0.87;;
16133;SDS011;8172;45.018;5.972;2022-08-19T07:13:34;2.10;;;1.30;;
16133;SDS011;8172;45.018;5.972;2022-08-19T07:18:42;2.13;;;1.00;;
16133;SDS011;8172;45.018;5.972;2022-08-19T07:23:51;2.83;;;1.10;;
16133;SDS011;8172;45.018;5.972;2022-08-19T07:28:58;2.87;;;1.07;;
16133;SDS011;8172;45.018;5.972;2022-08-19T07:34:08;1.00;;;0.90;;
16133;SDS011;8172;45.018;5.972;2022-08-19T07:39:20;1.47;;;1.00;;
16133;SDS011;8172;45.018;5.972;2022-08-19T07:44:29;1.30;;;1.10;;
16133;SDS011;8172;45.018;5.972;2022-08-19T07:49:36;1.10;;;0.97;;
16133;SDS011;8172;45.018;5.972;2022-08-19T07:54:43;0.93;;;0.90;;
16133;SDS011;8172;45.018;5.972;2022-08-19T07:59:50;1.77;;;1.17;;
16133;SDS011;8172;45.018;5.972;2022-08-19T08:04:58;1.90;;;1.20;;
16133;SDS011;8172;45.018;5.972;2022-08-19T08:10:07;1.20;;;1.10;;
16133;SDS011;8172;45.018;5.972;2022-08-19T08:15:16;1.20;;;1.10;;
16133;SDS011;8172;45.018;5.972;2022-08-19T08:20:26;1.10;;;1.00;;
16133;SDS011;8172;45.018;5.972;2022-08-19T08:25:33;1.37;;;1.10;;
16133;SDS011;8172;45.018;5.972;2022-08-19T08:30:42;1.40;;;1.10;;
16133;SDS011;8172;45.018;5.972;2022-08-19T08:35:51;1.30;;;1.20;;
16133;SDS011;8172;45.018;5.972;2022-08-19T08:41:00;1.40;;;1.30;;
16133;SDS011;8172;45.018;5.972;2022-08-19T08:46:13;12.20;;;1.93;;
16133;SDS011;8172;45.018;5.972;2022-08-19T08:51:27;1.63;;;1.30;;
16133;SDS011;8172;45.018;5.972;2022-08-19T08:56:40;1.47;;;1.30;;
16133;SDS011;8172;45.018;5.972;2022-08-19T09:01:46;1.83;;;1.20;;
16133;SDS011;8172;45.018;5.972;2022-08-19T09:06:57;1.20;;;1.10;;
16133;SDS011;8172;45.018;5.972;2022-08-19T09:12:15;1.90;;;1.47;;
16133;SDS011;8172;45.018;5.972;2022-08-19T09:17:13;1.50;;;1.40;;
16133;SDS011;8172;45.018;5.972;2022-08-19T09:22:21;4.20;;;1.43;;
16133;SDS011;8172;45.018;5.972;2022-08-19T09:27:30;1.60;;;1.50;;
16133;SDS011;8172;45.018;5.972;2022-08-19T09:32:39;2.40;;;1.63;;
16133;SDS011;8172;45.018;5.972;2022-08-19T09:37:48;1.43;;;1.33;;
16133;SDS011;8172;45.018;5.972;2022-08-19T09:42:58;2.50;;;1.40;;
16133;SDS011;8172;45.018;5.972;2022-08-19T09:48:08;2.43;;;1.50;;
16133;SDS011;8172;45.018;5.972;2022-08-19T09:53:17;1.47;;;1.37;;
16133;SDS011;8172;45.018;5.972;2022-08-19T09:58:28;1.30;;;1.20;;
16133;SDS011;8172;45.018;5.972;2022-08-19T10:03:36;1.20;;;1.10;;
16133;SDS011;8172;45.018;5.972;2022-08-19T10:08:43;1.80;;;1.53;;
16133;SDS011;8172;45.018;5.972;2022-08-19T10:13:53;1.43;;;1.33;;
16133;SDS011;8172;45.018;5.972;2022-08-19T10:19:00;1.97;;;1.50;;
16133;SDS011;8172;45.018;5.972;2022-08-19T10:24:09;1.70;;;1.60;;
16133;SDS011;8172;45.018;5.972;2022-08-19T10:29:16;1.90;;;1.40;;
16133;SDS011;8172;45.018;5.972;2022-08-19T10:34:25;1.50;;;1.23;;
16133;SDS011;8172;45.018;5.972;2022-08-19T10:39:33;2.10;;;1.70;;
16133;SDS011;8172;45.018;5.972;2022-08-19T10:44:43;2.00;;;1.80;;
16133;SDS011;8172;45.018;5.972;2022-08-19T10:49:54;2.83;;;2.00;;
16133;SDS011;8172;45.018;5.972;2022-08-19T10:55:04;2.57;;;2.17;;
16133;SDS011;8172;45.018;5.972;2022-08-19T11:00:14;2.40;;;2.20;;
16133;SDS011;8172;45.018;5.972;2022-08-19T11:05:21;2.70;;;2.50;;
16133;SDS011;8172;45.018;5.972;2022-08-19T11:10:28;3.30;;;3.00;;
16133;SDS011;8172;45.018;5.972;2022-08-19T11:15:35;3.10;;;2.80;;
16133;SDS011;8172;45.018;5.972;2022-08-19T11:20:43;3.30;;;2.60;;
16133;SDS011;8172;45.018;5.972;2022-08-19T11:25:52;2.40;;;2.20;;
16133;SDS011;8172;45.018;5.972;2022-08-19T11:30:59;4.03;;;3.63;;
16133;SDS011;8172;45.018;5.972;2022-08-19T11:36:08;4.70;;;4.30;;
16133;SDS011;8172;45.018;5.972;2022-08-19T11:41:18;4.27;;;3.87;;
16133;SDS011;8172;45.018;5.972;2022-08-19T11:46:28;3.53;;;3.23;;
16133;SDS011;8172;45.018;5.972;2022-08-19T11:51:36;4.10;;;3.70;;
16133;SDS011;8172;45.018;5.972;2022-08-19T11:56:43;5.73;;;3.60;;
16133;SDS011;8172;45.018;5.972;2022-08-19T12:01:52;3.27;;;2.97;;
16133;SDS011;8172;45.018;5.972;2022-08-19T12:07:01;3.60;;;2.87;;
16133;SDS011;8172;45.018;5.972;2022-08-19T12:12:08;4.90;;;3.00;;
16133;SDS011;8172;45.018;5.972;2022-08-19T12:17:16;3.40;;;2.90;;
16133;SDS011;8172;45.018;5.972;2022-08-19T12:22:23;3.70;;;3.40;;
16133;SDS011;8172;45.018;5.972;2022-08-19T12:27:30;3.10;;;2.70;;
16133;SDS011;8172;45.018;5.972;2022-08-19T12:32:39;3.83;;;3.53;;
16133;SDS011;8172;45.018;5.972;2022-08-19T12:37:46;3.83;;;3.50;;
16133;SDS011;8172;45.018;5.972;2022-08-19T12:42:56;5.97;;;4.50;;
16133;SDS011;8172;45.018;5.972;2022-08-19T12:48:03;5.80;;;5.03;;
16133;SDS011;8172;45.018;5.972;2022-08-19T12:53:13;7.27;;;6.10;;
16133;SDS011;8172;45.018;5.972;2022-08-19T12:58:20;5.90;;;4.43;;
16133;SDS011;8172;45.018;5.972;2022-08-19T13:03:29;4.63;;;4.23;;
16133;SDS011;8172;45.018;5.972;2022-08-19T13:08:38;4.90;;;3.77;;
16133;SDS011;8172;45.018;5.972;2022-08-19T13:13:48;4.10;;;3.70;;
16133;SDS011;8172;45.018;5.972;2022-08-19T13:18:57;4.27;;;3.87;;
16133;SDS011;8172;45.018;5.972;2022-08-19T13:24:04;4.63;;;3.57;;
16133;SDS011;8172;45.018;5.972;2022-08-19T13:29:12;4.77;;;3.80;;
16133;SDS011;8172;45.018;5.972;2022-08-19T13:34:31;4.17;;;3.77;;
16133;SDS011;8172;45.018;5.972;2022-08-19T13:39:32;4.40;;;4.00;;
16133;SDS011;8172;45.018;5.972;2022-08-19T13:44:41;5.93;;;3.77;;
16133;SDS011;8172;45.018;5.972;2022-08-19T13:49:50;4.30;;;3.90;;
16133;SDS011;8172;45.018;5.972;2022-08-19T13:54:57;4.67;;;3.30;;
16133;SDS011;8172;45.018;5.972;2022-08-19T14:00:07;4.70;;;4.10;;
16133;SDS011;8172;45.018;5.972;2022-08-19T14:05:15;4.37;;;3.97;;
16133;SDS011;8172;45.018;5.972;2022-08-19T14:10:24;6.27;;;4.03;;
16133;SDS011;8172;45.018;5.972;2022-08-19T14:15:33;4.23;;;3.83;;
16133;SDS011;8172;45.018;5.972;2022-08-19T14:20:43;4.20;;;3.80;;
16133;SDS011;8172;45.018;5.972;2022-08-19T14:25:50;4.47;;;3.87;;
16133;SDS011;8172;45.018;5.972;2022-08-19T14:30:57;4.50;;;4.07;;
16133;SDS011;8172;45.018;5.972;2022-08-19T14:36:04;4.50;;;4.10;;
16133;SDS011;8172;45.018;5.972;2022-08-19T14:41:14;4.57;;;4.17;;
16133;SDS011;8172;45.018;5.972;2022-08-19T14:46:24;4.33;;;3.93;;
16133;SDS011;8172;45.018;5.972;2022-08-19T14:51:33;4.73;;;3.70;;
16133;SDS011;8172;45.018;5.972;2022-08-19T14:56:41;5.30;;;4.00;;
16133;SDS011;8172;45.018;5.972;2022-08-19T15:01:48;5.20;;;4.33;;
16133;SDS011;8172;45.018;5.972;2022-08-19T15:06:56;4.80;;;4.30;;
16133;SDS011;8172;45.018;5.972;2022-08-19T15:12:04;4.80;;;4.20;;
16133;SDS011;8172;45.018;5.972;2022-08-19T15:17:12;4.70;;;4.30;;
16133;SDS011;8172;45.018;5.972;2022-08-19T15:22:19;4.17;;;3.43;;
16133;SDS011;8172;45.018;5.972;2022-08-19T15:27:26;4.67;;;4.27;;
16133;SDS011;8172;45.018;5.972;2022-08-19T15:32:34;5.40;;;4.13;;
16133;SDS011;8172;45.018;5.972;2022-08-19T15:37:42;5.87;;;4.53;;
16133;SDS011;8172;45.018;5.972;2022-08-19T15:42:51;4.40;;;4.00;;
16133;SDS011;8172;45.018;5.972;2022-08-19T15:47:59;5.40;;;4.67;;
16133;SDS011;8172;45.018;5.972;2022-08-19T15:53:09;5.20;;;4.67;;
16133;SDS011;8172;45.018;5.972;2022-08-19T15:58:16;5.30;;;4.70;;
16133;SDS011;8172;45.018;5.972;2022-08-19T16:03:27;9.23;;;6.90;;
16133;SDS011;8172;45.018;5.972;2022-08-19T16:08:36;7.60;;;6.90;;
16133;SDS011;8172;45.018;5.972;2022-08-19T16:13:45;6.60;;;6.00;;
16133;SDS011;8172;45.018;5.972;2022-08-19T16:18:56;8.33;;;6.97;;
16133;SDS011;8172;45.018;5.972;2022-08-19T16:24:05;6.80;;;6.10;;
16133;SDS011;8172;45.018;5.972;2022-08-19T16:29:15;6.33;;;5.73;;
16133;SDS011;8172;45.018;5.972;2022-08-19T16:34:25;8.17;;;5.80;;
16133;SDS011;8172;45.018;5.972;2022-08-19T16:39:32;6.83;;;6.13;;
16133;SDS011;8172;45.018;5.972;2022-08-19T16:44:41;15.33;;;12.93;;
16133;SDS011;8172;45.018;5.972;2022-08-19T16:49:50;13.33;;;11.93;;
16133;SDS011;8172;45.018;5.972;2022-08-19T16:54:59;9.43;;;5.80;;
16133;SDS011;8172;45.018;5.972;2022-08-19T17:00:07;6.83;;;5.67;;
16133;SDS011;8172;45.018;5.972;2022-08-19T17:05:16;8.77;;;7.83;;
16133;SDS011;8172;45.018;5.972;2022-08-19T17:10:24;6.70;;;5.50;;
16133;SDS011;8172;45.018;5.972;2022-08-19T17:15:31;16.07;;;12.63;;
16133;SDS011;8172;45.018;5.972;2022-08-19T17:20:39;33.60;;;25.97;;
16133;SDS011;8172;45.018;5.972;2022-08-19T17:25:47;5.70;;;5.20;;
16133;SDS011;8172;45.018;5.972;2022-08-19T17:30:55;6.67;;;5.67;;
16133;SDS011;8172;45.018;5.972;2022-08-19T17:36:03;8.93;;;6.90;;
16133;SDS011;8172;45.018;5.972;2022-08-19T17:41:11;6.57;;;5.87;;
16133;SDS011;8172;45.018;5.972;2022-08-19T17:46:18;7.50;;;6.70;;
16133;SDS011;8172;45.018;5.972;2022-08-19T17:56:35;9.60;;;6.93;;
16133;SDS011;8172;45.018;5.972;2022-08-19T18:01:43;7.77;;;6.83;;
16133;SDS011;8172;45.018;5.972;2022-08-19T18:06:53;7.73;;;7.00;;
16133;SDS011;8172;45.018;5.972;2022-08-19T18:12:00;8.20;;;7.40;;
16133;SDS011;8172;45.018;5.972;2022-08-19T18:17:13;7.83;;;7.13;;
16133;SDS011;8172;45.018;5.972;2022-08-19T18:27:33;11.67;;;8.07;;
16133;SDS011;8172;45.018;5.972;2022-08-19T18:32:40;12.40;;;8.20;;
16133;SDS011;8172;45.018;5.972;2022-08-19T18:37:49;8.50;;;7.63;;
16133;SDS011;8172;45.018;5.972;2022-08-19T18:42:56;9.77;;;7.80;;
16133;SDS011;8172;45.018;5.972;2022-08-19T18:48:05;8.30;;;7.50;;
16133;SDS011;8172;45.018;5.972;2022-08-19T18:53:15;9.17;;;7.43;;
16133;SDS011;8172;45.018;5.972;2022-08-19T18:58:24;6.87;;;6.27;;
16133;SDS011;8172;45.018;5.972;2022-08-19T19:03:34;9.70;;;6.00;;
16133;SDS011;8172;45.018;5.972;2022-08-19T19:08:44;7.37;;;6.13;;
16133;SDS011;8172;45.018;5.972;2022-08-19T19:13:52;6.43;;;5.60;;
16133;SDS011;8172;45.018;5.972;2022-08-19T19:18:59;7.90;;;6.50;;
16133;SDS011;8172;45.018;5.972;2022-08-19T19:24:07;6.83;;;5.80;;
16133;SDS011;8172;45.018;5.972;2022-08-19T19:29:18;7.20;;;6.50;;
16133;SDS011;8172;45.018;5.972;2022-08-19T19:34:26;6.97;;;6.00;;
16133;SDS011;8172;45.018;5.972;2022-08-19T19:39:34;8.23;;;6.13;;
16133;SDS011;8172;45.018;5.972;2022-08-19T19:44:43;5.60;;;5.03;;
16133;SDS011;8172;45.018;5.972;2022-08-19T19:49:52;7.07;;;5.50;;
16133;SDS011;8172;45.018;5.972;2022-08-19T19:55:02;6.37;;;5.33;;
16133;SDS011;8172;45.018;5.972;2022-08-19T20:00:10;9.63;;;7.40;;
16133;SDS011;8172;45.018;5.972;2022-08-19T20:05:20;50.47;;;35.47;;
16133;SDS011;8172;45.018;5.972;2022-08-19T20:10:27;40.20;;;27.67;;
16133;SDS011;8172;45.018;5.972;2022-08-19T20:15:36;26.70;;;19.10;;
16133;SDS011;8172;45.018;5.972;2022-08-19T20:20:46;10.20;;;8.30;;
16133;SDS011;8172;45.018;5.972;2022-08-19T20:25:54;9.53;;;8.30;;
16133;SDS011;8172;45.018;5.972;2022-08-19T20:31:01;20.53;;;16.17;;
16133;SDS011;8172;45.018;5.972;2022-08-19T20:36:09;70.97;;;48.77;;
16133;SDS011;8172;45.018;5.972;2022-08-19T20:41:16;59.43;;;42.03;;
16133;SDS011;8172;45.018;5.972;2022-08-19T20:46:24;16.07;;;11.17;;
16133;SDS011;8172;45.018;5.972;2022-08-19T20:51:33;19.37;;;17.13;;
16133;SDS011;8172;45.018;5.972;2022-08-19T20:56:40;12.30;;;10.73;;
16133;SDS011;8172;45.018;5.972;2022-08-19T21:01:47;8.23;;;7.43;;
16133;SDS011;8172;45.018;5.972;2022-08-19T21:06:56;7.37;;;6.67;;
16133;SDS011;8172;45.018;5.972;2022-08-19T21:12:04;7.00;;;6.30;;
16133;SDS011;8172;45.018;5.972;2022-08-19T21:17:12;8.93;;;7.07;;
16133;SDS011;8172;45.018;5.972;2022-08-19T21:22:19;7.60;;;6.30;;
16133;SDS011;8172;45.018;5.972;2022-08-19T21:27:26;8.77;;;6.87;;
16133;SDS011;8172;45.018;5.972;2022-08-19T21:32:33;9.90;;;6.90;;
16133;SDS011;8172;45.018;5.972;2022-08-19T21:37:41;7.73;;;6.93;;
16133;SDS011;8172;45.018;5.972;2022-08-19T21:42:47;7.33;;;6.50;;
16133;SDS011;8172;45.018;5.972;2022-08-19T21:47:55;8.63;;;6.60;;
16133;SDS011;8172;45.018;5.972;2022-08-19T21:53:02;8.43;;;6.43;;
16133;SDS011;8172;45.018;5.972;2022-08-19T21:58:09;8.20;;;6.97;;
16133;SDS011;8172;45.018;5.972;2022-08-19T22:03:17;7.60;;;6.90;;
16133;SDS011;8172;45.018;5.972;2022-08-19T22:08:25;8.83;;;7.10;;
16133;SDS011;8172;45.018;5.972;2022-08-19T22:13:32;8.10;;;7.30;;
16133;SDS011;8172;45.018;5.972;2022-08-19T22:18:44;8.20;;;7.23;;
16133;SDS011;8172;45.018;5.972;2022-08-19T22:23:51;9.90;;;8.23;;
16133;SDS011;8172;45.018;5.972;2022-08-19T22:28:58;8.50;;;7.60;;
16133;SDS011;8172;45.018;5.972;2022-08-19T22:34:06;7.87;;;7.07;;
16133;SDS011;8172;45.018;5.972;2022-08-19T22:39:14;6.43;;;5.73;;
16133;SDS011;8172;45.018;5.972;2022-08-19T22:44:21;5.63;;;4.87;;
16133;SDS011;8172;45.018;5.972;2022-08-19T22:49:28;7.67;;;5.10;;
16133;SDS011;8172;45.018;5.972;2022-08-19T22:54:34;6.37;;;4.90;;
16133;SDS011;8172;45.018;5.972;2022-08-19T22:59:41;5.33;;;4.83;;
16133;SDS011;8172;45.018;5.972;2022-08-19T23:04:49;6.30;;;5.07;;
16133;SDS011;8172;45.018;5.972;2022-08-19T23:09:57;5.73;;;4.90;;
16133;SDS011;8172;45.018;5.972;2022-08-19T23:15:06;5.93;;;5.10;;
16133;SDS011;8172;45.018;5.972;2022-08-19T23:20:15;11.87;;;5.27;;
16133;SDS011;8172;45.018;5.972;2022-08-19T23:25:24;5.50;;;4.97;;
16133;SDS011;8172;45.018;5.972;2022-08-19T23:30:32;6.93;;;5.90;;
16133;SDS011;8172;45.018;5.972;2022-08-19T23:35:41;6.47;;;5.73;;
16133;SDS011;8172;45.018;5.972;2022-08-19T23:40:49;6.67;;;5.57;;
16133;SDS011;8172;45.018;5.972;2022-08-19T23:45:58;6.20;;;5.07;;
16133;SDS011;8172;45.018;5.972;2022-08-19T23:51:09;5.50;;;4.67;;
16133;SDS011;8172;45.018;5.972;2022-08-19T23:56:17;6.03;;;4.90;;
